Time;durP1;ratioP1;P1;durP2;ratioP2;P2;SDS_P1;SDS_P2;PMS_P1;PMS_P2;Temp;Humidity;BMP_temperature;BMP_pressure;BME280_temperature;BME280_humidity;BME280_pressure;Samples;Min_cycle;Max_cycle;Signal;HPM_P1;HPM_P2
2021/10/11 17:00:22;;;;;;;55.92;28.23;;;;;;;;;;5090627;28;20695;-64
2021/10/11 17:02:48;;;;;;;52.33;27.92;;;;;;;;;;5090479;28;20115;-63
2021/10/11 17:05:14;;;;;;;56.95;27.75;;;;;;;;;;5090543;28;20427;-64
2021/10/11 17:07:39;;;;;;;66.97;31.20;;;;;;;;;;5090171;28;20039;-63
2021/10/11 17:10:05;;;;;;;54.53;28.92;;;;;;;;;;5090134;28;20046;-63
2021/10/11 17:12:31;;;;;;;54.30;28.38;;;;;;;;;;5090479;28;20021;-64
2021/10/11 17:14:56;;;;;;;48.83;27.95;;;;;;;;;;5090535;28;20016;-64
2021/10/11 17:17:21;;;;;;;52.45;28.70;;;;;;;;;;5089853;28;20016;-64
2021/10/11 17:19:46;;;;;;;48.50;28.58;;;;;;;;;;5089967;28;20483;-64
2021/10/11 17:22:12;;;;;;;52.83;29.10;;;;;;;;;;5090103;28;20023;-64
2021/10/11 17:24:37;;;;;;;49.25;28.30;;;;;;;;;;5089967;28;20019;-64
2021/10/11 17:27:02;;;;;;;54.58;30.73;;;;;;;;;;5089971;28;20043;-64
2021/10/11 17:29:28;;;;;;;61.00;32.70;;;;;;;;;;5090097;28;20016;-63
2021/10/11 17:31:54;;;;;;;64.43;32.90;;;;;;;;;;5089777;28;20032;-63
2021/10/11 17:34:20;;;;;;;59.50;32.83;;;;;;;;;;5089980;28;20026;-65
2021/10/11 17:36:45;;;;;;;66.50;35.03;;;;;;;;;;5091851;28;20020;-63
2021/10/11 17:39:10;;;;;;;72.95;35.28;;;;;;;;;;5089638;28;20032;-63
2021/10/11 17:41:35;;;;;;;68.10;33.78;;;;;;;;;;5089628;28;20095;-64
2021/10/11 17:44:01;;;;;;;60.80;32.72;;;;;;;;;;5089890;28;20346;-64
2021/10/11 17:46:26;;;;;;;68.40;34.13;;;;;;;;;;5089193;28;20036;-64
2021/10/11 17:48:51;;;;;;;64.82;34.13;;;;;;;;;;5089430;28;20024;-63
2021/10/11 17:51:17;;;;;;;66.15;32.85;;;;;;;;;;5089322;28;20472;-64
2021/10/11 17:53:42;;;;;;;59.33;31.40;;;;;;;;;;5089180;28;20024;-64
2021/10/11 17:56:08;;;;;;;65.47;32.35;;;;;;;;;;5089337;28;20013;-64
2021/10/11 17:58:34;;;;;;;62.05;32.85;;;;;;;;;;5079568;28;20527;-64
2021/10/11 18:00:59;;;;;;;62.42;31.75;;;;;;;;;;5075756;28;20016;-63
2021/10/11 18:03:24;;;;;;;67.90;34.30;;;;;;;;;;5075784;28;20102;-63
2021/10/11 18:05:49;;;;;;;75.00;33.60;;;;;;;;;;5075379;28;20028;-63
2021/10/11 18:08:15;;;;;;;65.13;32.17;;;;;;;;;;5075652;28;20028;-62
2021/10/11 18:10:40;;;;;;;60.47;31.23;;;;;;;;;;5075726;28;20098;-64
2021/10/11 18:13:05;;;;;;;65.15;34.20;;;;;;;;;;5075810;28;20024;-64
2021/10/11 18:15:31;;;;;;;59.00;31.42;;;;;;;;;;5075525;28;20051;-64
2021/10/11 18:17:56;;;;;;;58.17;31.58;;;;;;;;;;5075214;28;20388;-64
2021/10/11 18:20:21;;;;;;;69.55;38.30;;;;;;;;;;5075360;28;20020;-64
2021/10/11 18:22:47;;;;;;;70.38;38.28;;;;;;;;;;5075388;28;20020;-64
2021/10/11 18:25:12;;;;;;;80.90;42.38;;;;;;;;;;5075588;28;20024;-64
2021/10/11 18:27:38;;;;;;;77.22;39.72;;;;;;;;;;5075079;28;20400;-63
2021/10/11 18:30:06;;;;;;;72.30;39.72;;;;;;;;;;5075214;28;20070;-64
2021/10/11 18:32:32;;;;;;;62.03;34.83;;;;;;;;;;5075410;28;20063;-64
2021/10/11 18:34:58;;;;;;;60.97;32.90;;;;;;;;;;5074763;28;20055;-63
2021/10/11 18:37:23;;;;;;;63.80;33.03;;;;;;;;;;5074858;28;20016;-63
2021/10/11 18:39:49;;;;;;;60.70;32.33;;;;;;;;;;5075126;28;20017;-63
2021/10/11 18:42:14;;;;;;;60.38;32.15;;;;;;;;;;5075307;28;20020;-63
2021/10/11 18:44:40;;;;;;;57.40;31.65;;;;;;;;;;5074973;28;20480;-64
2021/10/11 18:47:08;;;;;;;57.17;33.55;;;;;;;;;;5074812;28;20039;-62
2021/10/11 18:49:33;;;;;;;63.63;36.58;;;;;;;;;;5074731;28;20070;-62
2021/10/11 18:51:58;;;;;;;66.78;35.45;;;;;;;;;;5074706;28;20013;-63
2021/10/11 18:54:24;;;;;;;64.55;34.75;;;;;;;;;;5074974;28;20020;-63
2021/10/11 18:56:49;;;;;;;65.72;34.78;;;;;;;;;;5074545;28;20020;-63
2021/10/11 18:59:14;;;;;;;61.17;33.15;;;;;;;;;;5074583;28;20049;-63
2021/10/11 19:01:43;;;;;;;57.03;34.13;;;;;;;;;;5074742;28;20055;-64
2021/10/11 19:04:09;;;;;;;60.03;32.90;;;;;;;;;;5074462;28;20412;-64
2021/10/11 19:06:34;;;;;;;60.08;31.98;;;;;;;;;;5074351;28;20036;-64
2021/10/11 19:09:00;;;;;;;65.10;34.00;;;;;;;;;;5074181;28;20107;-63
2021/10/11 19:11:25;;;;;;;64.13;32.80;;;;;;;;;;5074155;28;20031;-63
2021/10/11 19:13:51;;;;;;;59.60;33.47;;;;;;;;;;5074921;28;20465;-63
2021/10/11 19:16:16;;;;;;;65.05;32.95;;;;;;;;;;5074505;28;20025;-64
2021/10/11 19:18:42;;;;;;;62.33;32.58;;;;;;;;;;5073827;28;20027;-64
2021/10/11 19:21:07;;;;;;;62.55;32.78;;;;;;;;;;5074383;28;20048;-64
2021/10/11 19:23:33;;;;;;;110.88;56.55;;;;;;;;;;5074532;28;20028;-64
2021/10/11 19:25:58;;;;;;;61.90;30.75;;;;;;;;;;5074013;28;20087;-63
2021/10/11 19:28:24;;;;;;;66.40;31.48;;;;;;;;;;5074585;28;20157;-63
2021/10/11 19:30:49;;;;;;;63.72;30.27;;;;;;;;;;5074306;28;20021;-62
2021/10/11 19:33:15;;;;;;;116.95;60.60;;;;;;;;;;5073867;28;20032;-64
2021/10/11 19:38:01;;;;;;;114.80;41.80;;;;;;;;;;5070746;28;20385;-64
2021/10/11 19:42:49;;;;;;;64.80;33.50;;;;;;;;;;5072808;28;20378;-63
2021/10/11 19:45:14;;;;;;;60.13;31.55;;;;;;;;;;5071022;28;20103;-63
2021/10/11 19:47:40;;;;;;;57.63;33.15;;;;;;;;;;5070093;28;20025;-63
2021/10/11 19:50:06;;;;;;;58.33;31.02;;;;;;;;;;5070090;28;20023;-63
2021/10/11 19:52:31;;;;;;;58.70;30.83;;;;;;;;;;5070116;28;20384;-64
2021/10/11 19:54:57;;;;;;;53.55;29.73;;;;;;;;;;5070250;28;20028;-63
2021/10/11 19:59:58;;;;;;;61.92;31.95;;;;;;;;;;5090558;28;20378;-64
2021/10/11 20:02:23;;;;;;;64.20;35.45;;;;;;;;;;5090656;28;20111;-64
2021/10/11 20:04:49;;;;;;;58.88;33.55;;;;;;;;;;5090675;28;20457;-63
2021/10/11 20:07:14;;;;;;;59.35;34.25;;;;;;;;;;5090507;28;20514;-64
2021/10/11 20:09:40;;;;;;;65.68;34.50;;;;;;;;;;5090212;28;20024;-64
2021/10/11 20:12:06;;;;;;;59.78;33.72;;;;;;;;;;5090204;28;20028;-63
2021/10/11 20:14:32;;;;;;;57.47;33.38;;;;;;;;;;5090260;28;20074;-63
2021/10/11 20:16:57;;;;;;;64.28;33.08;;;;;;;;;;5089995;28;20078;-64
2021/10/11 20:19:23;;;;;;;64.38;32.83;;;;;;;;;;5090180;28;20036;-64
2021/10/11 20:21:48;;;;;;;59.97;31.20;;;;;;;;;;5090238;28;20103;-64
2021/10/11 20:24:13;;;;;;;65.00;34.30;;;;;;;;;;5090230;28;20027;-63
2021/10/11 20:26:39;;;;;;;59.63;34.55;;;;;;;;;;5090233;28;20024;-64
2021/10/11 20:29:04;;;;;;;58.03;32.60;;;;;;;;;;5090313;28;20042;-62
2021/10/11 20:31:30;;;;;;;63.30;33.58;;;;;;;;;;5090087;28;20402;-64
2021/10/11 20:33:55;;;;;;;67.65;34.67;;;;;;;;;;5090264;28;20035;-63
2021/10/11 20:36:20;;;;;;;62.88;35.47;;;;;;;;;;5089913;28;20107;-63
2021/10/11 20:38:46;;;;;;;59.83;35.53;;;;;;;;;;5089910;28;20024;-64
2021/10/11 20:41:11;;;;;;;59.15;33.97;;;;;;;;;;5090000;28;20024;-64
2021/10/11 20:43:36;;;;;;;63.35;34.03;;;;;;;;;;5089962;28;20024;-63
2021/10/11 20:46:01;;;;;;;59.22;34.60;;;;;;;;;;5089938;28;20024;-64
2021/10/11 20:48:27;;;;;;;65.78;34.67;;;;;;;;;;5089649;28;20020;-64
2021/10/11 20:50:53;;;;;;;65.78;33.50;;;;;;;;;;5089739;28;20033;-64
2021/10/11 20:53:18;;;;;;;58.75;34.45;;;;;;;;;;5089873;28;20020;-64
2021/10/11 20:55:44;;;;;;;64.28;34.03;;;;;;;;;;5089793;28;20095;-64
2021/10/11 20:58:10;;;;;;;62.45;33.95;;;;;;;;;;5089453;28;20097;-64
2021/10/11 21:00:40;;;;;;;68.20;36.58;;;;;;;;;;5089565;28;20024;-64
2021/10/11 21:03:06;;;;;;;67.40;36.25;;;;;;;;;;5089734;28;20056;-63
2021/10/11 21:05:31;;;;;;;68.82;36.08;;;;;;;;;;5089482;28;20067;-63
2021/10/11 21:07:56;;;;;;;64.35;36.85;;;;;;;;;;5089402;28;20027;-64
2021/10/11 21:10:21;;;;;;;67.18;36.53;;;;;;;;;;5081319;28;20016;-64
2021/10/11 21:12:47;;;;;;;66.60;38.85;;;;;;;;;;5075661;28;20119;-63
2021/10/11 21:15:12;;;;;;;70.72;37.10;;;;;;;;;;5076339;28;20013;-64
2021/10/11 21:17:38;;;;;;;67.78;37.88;;;;;;;;;;5075387;28;20058;-64
2021/10/11 21:20:03;;;;;;;70.63;38.92;;;;;;;;;;5075825;28;20036;-63
2021/10/11 21:22:29;;;;;;;74.50;39.67;;;;;;;;;;5075877;28;20491;-63
2021/10/11 21:24:54;;;;;;;81.90;40.08;;;;;;;;;;5075576;28;20021;-64
2021/10/11 21:27:19;;;;;;;73.60;41.40;;;;;;;;;;5075572;28;20052;-64
2021/10/11 21:29:44;;;;;;;73.10;40.15;;;;;;;;;;5075614;28;20021;-64
2021/10/11 21:32:10;;;;;;;74.35;40.55;;;;;;;;;;5075637;28;20460;-65
2021/10/11 21:34:35;;;;;;;73.50;39.83;;;;;;;;;;5075530;28;20023;-64
2021/10/11 21:37:01;;;;;;;78.88;41.67;;;;;;;;;;5075440;28;20024;-63
2021/10/11 21:39:27;;;;;;;79.57;41.90;;;;;;;;;;5075618;28;20040;-62
2021/10/11 21:41:52;;;;;;;77.18;40.92;;;;;;;;;;5075288;28;20020;-64
2021/10/11 21:44:17;;;;;;;69.80;38.67;;;;;;;;;;5075372;28;20021;-62
2021/10/11 21:46:42;;;;;;;76.47;41.92;;;;;;;;;;5075089;28;20017;-64
2021/10/11 21:49:09;;;;;;;70.75;39.08;;;;;;;;;;5075190;28;20020;-64
2021/10/11 21:51:34;;;;;;;68.47;38.58;;;;;;;;;;5076972;28;20100;-63
2021/10/11 21:54:00;;;;;;;70.10;40.55;;;;;;;;;;5075115;28;20054;-64
2021/10/11 21:56:25;;;;;;;67.88;38.00;;;;;;;;;;5074915;28;20483;-63
2021/10/11 21:58:50;;;;;;;66.63;39.70;;;;;;;;;;5074868;28;20119;-63
2021/10/11 22:01:21;;;;;;;78.10;40.10;;;;;;;;;;5074932;28;20468;-63
2021/10/11 22:03:47;;;;;;;73.93;39.70;;;;;;;;;;5074982;28;20012;-64
2021/10/11 22:06:12;;;;;;;81.30;38.72;;;;;;;;;;5074830;28;20023;-63
2021/10/11 22:08:37;;;;;;;71.15;38.97;;;;;;;;;;5074820;28;20108;-64
2021/10/11 22:11:03;;;;;;;72.43;38.40;;;;;;;;;;5074871;28;20040;-63
2021/10/11 22:13:29;;;;;;;84.72;42.00;;;;;;;;;;5074825;28;20048;-63
2021/10/11 22:15:55;;;;;;;79.35;40.30;;;;;;;;;;5074435;28;20031;-63
2021/10/11 22:18:21;;;;;;;75.20;40.60;;;;;;;;;;5074436;28;20111;-64
2021/10/11 22:20:46;;;;;;;76.43;40.38;;;;;;;;;;5074471;28;20017;-63
2021/10/11 22:23:12;;;;;;;74.43;39.35;;;;;;;;;;5073870;28;20074;-63
2021/10/11 22:25:37;;;;;;;71.78;40.28;;;;;;;;;;5074582;28;20380;-63
2021/10/11 22:28:03;;;;;;;75.53;39.17;;;;;;;;;;5074595;28;20369;-63
2021/10/11 22:30:28;;;;;;;76.32;41.10;;;;;;;;;;5074347;28;20490;-64
2021/10/11 22:32:54;;;;;;;74.07;39.17;;;;;;;;;;5074618;28;20043;-63
2021/10/11 22:35:19;;;;;;;71.28;39.97;;;;;;;;;;5074273;28;20021;-64
2021/10/11 22:37:45;;;;;;;72.15;38.97;;;;;;;;;;5074180;28;20388;-64
2021/10/11 22:40:11;;;;;;;68.28;39.33;;;;;;;;;;5074197;28;20024;-64
2021/10/11 22:42:36;;;;;;;78.15;38.92;;;;;;;;;;5074359;28;20016;-64
2021/10/11 22:45:02;;;;;;;71.43;40.33;;;;;;;;;;5073940;28;20392;-63
2021/10/11 22:47:27;;;;;;;71.93;39.50;;;;;;;;;;5073883;28;20017;-63
2021/10/11 22:49:52;;;;;;;74.15;40.47;;;;;;;;;;5073767;28;20023;-63
2021/10/11 22:52:26;;;;;;;66.13;39.10;;;;;;;;;;5073945;28;20488;-63
2021/10/11 22:54:52;;;;;;;71.78;38.92;;;;;;;;;;5074041;28;20023;-64
2021/10/11 22:57:18;;;;;;;75.57;39.78;;;;;;;;;;5073971;28;20020;-63
2021/10/11 22:59:43;;;;;;;65.43;38.58;;;;;;;;;;5073377;28;20051;-64
2021/10/11 23:02:11;;;;;;;62.92;36.80;;;;;;;;;;5073921;28;20345;-62
2021/10/11 23:04:36;;;;;;;65.05;36.90;;;;;;;;;;5073686;28;20025;-63
2021/10/11 23:07:01;;;;;;;67.85;36.38;;;;;;;;;;5073533;28;20041;-63
2021/10/11 23:09:27;;;;;;;67.32;36.83;;;;;;;;;;5074002;28;20029;-63
2021/10/11 23:11:52;;;;;;;67.20;36.13;;;;;;;;;;5074165;28;20024;-63
2021/10/11 23:14:18;;;;;;;118.47;39.38;;;;;;;;;;5073464;28;20016;-64
2021/10/11 23:16:43;;;;;;;64.05;35.15;;;;;;;;;;5073152;28;20025;-64
2021/10/11 23:19:08;;;;;;;61.38;33.60;;;;;;;;;;5073350;28;20024;-62
2021/10/11 23:23:59;;;;;;;68.50;38.28;;;;;;;;;;5070851;28;20350;-63
2021/10/11 23:26:24;;;;;;;64.07;36.72;;;;;;;;;;5070491;28;20101;-63
2021/10/11 23:28:51;;;;;;;65.72;37.83;;;;;;;;;;5070778;28;20017;-63
2021/10/11 23:31:16;;;;;;;67.50;37.10;;;;;;;;;;5070605;28;20056;-63
2021/10/11 23:33:41;;;;;;;59.05;34.13;;;;;;;;;;5070362;28;20040;-62
2021/10/11 23:36:07;;;;;;;61.15;37.10;;;;;;;;;;5070429;28;20020;-63
2021/10/11 23:38:32;;;;;;;66.78;38.70;;;;;;;;;;5070249;28;20026;-63
2021/10/11 23:40:57;;;;;;;63.40;37.67;;;;;;;;;;5070063;28;20028;-63
2021/10/11 23:43:23;;;;;;;64.88;36.35;;;;;;;;;;5069988;28;20422;-62
2021/10/11 23:45:48;;;;;;;70.18;37.40;;;;;;;;;;5070267;28;20012;-63
2021/10/11 23:48:13;;;;;;;74.90;37.85;;;;;;;;;;5069846;28;20021;-63
2021/10/11 23:50:38;;;;;;;62.45;34.55;;;;;;;;;;5069973;28;20465;-63
2021/10/11 23:53:04;;;;;;;63.03;35.33;;;;;;;;;;5069986;28;20079;-63
2021/10/11 23:55:29;;;;;;;61.28;35.55;;;;;;;;;;5069916;28;20029;-64
2021/10/11 23:57:54;;;;;;;53.33;32.38;;;;;;;;;;5070887;28;20066;-62
